sensor_id;sensor_type;location;lat;lon;timestamp;pressure;altitude;pressure_sealevel;temperature;humidity
50430;BME280;36359;41.556;-8.418;2023-03-26T00:00:58;100732.22;;;14.54;100.00
50430;BME280;36359;41.556;-8.418;2023-03-26T00:03:24;100737.25;;;14.41;100.00
50430;BME280;36359;41.556;-8.418;2023-03-26T00:06:01;100735.47;;;14.23;100.00
50430;BME280;36359;41.556;-8.418;2023-03-26T00:08:28;100729.81;;;14.17;100.00
50430;BME280;36359;41.556;-8.418;2023-03-26T00:10:54;100726.78;;;14.20;100.00
50430;BME280;36359;41.556;-8.418;2023-03-26T00:13:19;100728.25;;;14.06;100.00
50430;BME280;36359;41.556;-8.418;2023-03-26T00:15:45;100727.50;;;13.96;100.00
50430;BME280;36359;41.556;-8.418;2023-03-26T00:18:11;100721.25;;;14.03;100.00
50430;BME280;36359;41.556;-8.418;2023-03-26T00:20:36;100733.91;;;14.13;100.00
50430;BME280;36359;41.556;-8.418;2023-03-26T00:23:03;100729.50;;;14.20;100.00
50430;BME280;36359;41.556;-8.418;2023-03-26T00:25:29;100723.38;;;14.18;100.00
50430;BME280;36359;41.556;-8.418;2023-03-26T00:27:56;100728.50;;;14.21;100.00
50430;BME280;36359;41.556;-8.418;2023-03-26T00:30:22;100737.03;;;14.18;100.00
50430;BME280;36359;41.556;-8.418;2023-03-26T00:32:49;100728.66;;;14.19;100.00
50430;BME280;36359;41.556;-8.418;2023-03-26T00:35:15;100726.28;;;14.24;100.00
50430;BME280;36359;41.556;-8.418;2023-03-26T00:37:41;100731.78;;;14.32;100.00
50430;BME280;36359;41.556;-8.418;2023-03-26T00:40:08;100724.56;;;14.23;100.00
50430;BME280;36359;41.556;-8.418;2023-03-26T00:42:36;100735.47;;;14.23;100.00
50430;BME280;36359;41.556;-8.418;2023-03-26T00:45:06;100731.84;;;14.15;100.00
50430;BME280;36359;41.556;-8.418;2023-03-26T00:47:32;100728.59;;;14.11;100.00
50430;BME280;36359;41.556;-8.418;2023-03-26T00:49:58;100724.19;;;14.10;100.00
50430;BME280;36359;41.556;-8.418;2023-03-26T00:52:24;100725.31;;;13.99;100.00
50430;BME280;36359;41.556;-8.418;2023-03-26T00:54:53;100725.06;;;13.84;100.00
50430;BME280;36359;41.556;-8.418;2023-03-26T00:57:20;100717.56;;;13.86;100.00
50430;BME280;36359;41.556;-8.418;2023-03-26T00:59:47;100723.63;;;14.41;100.00
50430;BME280;36359;41.556;-8.418;2023-03-26T01:02:15;100727.59;;;14.12;100.00
50430;BME280;36359;41.556;-8.418;2023-03-26T01:04:56;100724.97;;;13.94;100.00
50430;BME280;36359;41.556;-8.418;2023-03-26T01:07:25;100731.66;;;14.08;100.00
50430;BME280;36359;41.556;-8.418;2023-03-26T01:09:58;100729.22;;;13.97;100.00
50430;BME280;36359;41.556;-8.418;2023-03-26T01:12:28;100732.97;;;13.96;100.00
50430;BME280;36359;41.556;-8.418;2023-03-26T01:14:59;100732.50;;;13.74;100.00
50430;BME280;36359;41.556;-8.418;2023-03-26T01:17:27;100732.31;;;13.76;100.00
50430;BME280;36359;41.556;-8.418;2023-03-26T01:20:20;100735.00;;;13.68;100.00
50430;BME280;36359;41.556;-8.418;2023-03-26T01:22:56;100741.28;;;13.60;100.00
50430;BME280;36359;41.556;-8.418;2023-03-26T01:25:29;100733.41;;;13.57;100.00
50430;BME280;36359;41.556;-8.418;2023-03-26T01:27:57;100732.63;;;13.47;100.00
50430;BME280;36359;41.556;-8.418;2023-03-26T01:30:37;100725.63;;;13.62;100.00
50430;BME280;36359;41.556;-8.418;2023-03-26T01:33:08;100732.25;;;13.94;100.00
50430;BME280;36359;41.556;-8.418;2023-03-26T01:35:52;100725.63;;;13.62;100.00
50430;BME280;36359;41.556;-8.418;2023-03-26T01:38:31;100734.84;;;13.95;100.00
50430;BME280;36359;41.556;-8.418;2023-03-26T01:41:08;100728.69;;;13.67;100.00
50430;BME280;36359;41.556;-8.418;2023-03-26T01:43:46;100739.41;;;14.21;100.00
50430;BME280;36359;41.556;-8.418;2023-03-26T01:46:15;100734.31;;;13.92;100.00
50430;BME280;36359;41.556;-8.418;2023-03-26T01:48:43;100735.91;;;13.76;100.00
50430;BME280;36359;41.556;-8.418;2023-03-26T01:51:11;100728.69;;;13.67;100.00
50430;BME280;36359;41.556;-8.418;2023-03-26T01:53:46;100724.53;;;13.55;100.00
50430;BME280;36359;41.556;-8.418;2023-03-26T01:56:31;100722.38;;;13.40;100.00
50430;BME280;36359;41.556;-8.418;2023-03-26T02:02:09;100715.63;;;13.27;100.00
50430;BME280;36359;41.556;-8.418;2023-03-26T02:04:51;100715.63;;;13.27;100.00
50430;BME280;36359;41.556;-8.418;2023-03-26T02:10:29;100724.25;;;13.22;100.00
50430;BME280;36359;41.556;-8.418;2023-03-26T02:12:54;100715.31;;;13.12;100.00
50430;BME280;36359;41.556;-8.418;2023-03-26T02:15:20;100720.59;;;13.13;100.00
50430;BME280;36359;41.556;-8.418;2023-03-26T02:17:46;100721.53;;;13.04;100.00
50430;BME280;36359;41.556;-8.418;2023-03-26T02:20:14;100713.84;;;13.35;100.00
50430;BME280;36359;41.556;-8.418;2023-03-26T02:22:44;100723.06;;;13.25;100.00
50430;BME280;36359;41.556;-8.418;2023-03-26T02:25:19;100725.94;;;13.23;100.00
50430;BME280;36359;41.556;-8.418;2023-03-26T02:27:49;100725.94;;;13.23;100.00
50430;BME280;36359;41.556;-8.418;2023-03-26T02:30:20;100731.69;;;13.30;100.00
50430;BME280;36359;41.556;-8.418;2023-03-26T02:32:48;100725.66;;;13.26;100.00
50430;BME280;36359;41.556;-8.418;2023-03-26T02:35:18;100731.13;;;13.26;100.00
50430;BME280;36359;41.556;-8.418;2023-03-26T02:37:44;100721.31;;;13.33;100.00
50430;BME280;36359;41.556;-8.418;2023-03-26T02:40:17;100731.47;;;13.75;100.00
50430;BME280;36359;41.556;-8.418;2023-03-26T02:42:46;100719.53;;;13.68;100.00
50430;BME280;36359;41.556;-8.418;2023-03-26T02:45:13;100717.75;;;13.59;100.00
50430;BME280;36359;41.556;-8.418;2023-03-26T02:48:02;100706.16;;;13.57;100.00
50430;BME280;36359;41.556;-8.418;2023-03-26T02:51:03;100713.53;;;13.38;100.00
50430;BME280;36359;41.556;-8.418;2023-03-26T02:53:47;100707.28;;;13.28;100.00
50430;BME280;36359;41.556;-8.418;2023-03-26T02:56:24;100709.88;;;13.12;100.00
50430;BME280;36359;41.556;-8.418;2023-03-26T02:59:19;100717.34;;;12.92;100.00
50430;BME280;36359;41.556;-8.418;2023-03-26T03:01:51;100721.69;;;12.85;100.00
50430;BME280;36359;41.556;-8.418;2023-03-26T03:04:18;100711.94;;;12.82;100.00
50430;BME280;36359;41.556;-8.418;2023-03-26T03:06:46;100707.91;;;12.86;100.00
50430;BME280;36359;41.556;-8.418;2023-03-26T03:09:18;100718.19;;;12.92;100.00
50430;BME280;36359;41.556;-8.418;2023-03-26T03:12:03;100715.28;;;12.94;100.00
50430;BME280;36359;41.556;-8.418;2023-03-26T03:14:32;100718.66;;;13.42;100.00
50430;BME280;36359;41.556;-8.418;2023-03-26T03:16:57;100707.47;;;13.27;100.00
50430;BME280;36359;41.556;-8.418;2023-03-26T03:19:23;100708.22;;;13.19;100.00
50430;BME280;36359;41.556;-8.418;2023-03-26T03:21:49;100710.78;;;13.03;100.00
50430;BME280;36359;41.556;-8.418;2023-03-26T03:24:15;100701.75;;;13.02;100.00
50430;BME280;36359;41.556;-8.418;2023-03-26T03:26:44;100706.25;;;13.11;100.00
50430;BME280;36359;41.556;-8.418;2023-03-26T03:29:29;100704.84;;;13.43;100.00
50430;BME280;36359;41.556;-8.418;2023-03-26T03:31:57;100706.72;;;13.25;100.00
50430;BME280;36359;41.556;-8.418;2023-03-26T03:34:39;100711.66;;;13.21;100.00
50430;BME280;36359;41.556;-8.418;2023-03-26T03:37:07;100711.41;;;12.79;100.00
50430;BME280;36359;41.556;-8.418;2023-03-26T03:39:43;100711.34;;;12.88;100.00
50430;BME280;36359;41.556;-8.418;2023-03-26T03:42:15;100709.06;;;12.66;100.00
50430;BME280;36359;41.556;-8.418;2023-03-26T03:44:41;100709.47;;;12.71;100.00
50430;BME280;36359;41.556;-8.418;2023-03-26T03:47:17;100708.06;;;12.67;100.00
50430;BME280;36359;41.556;-8.418;2023-03-26T03:49:46;100716.63;;;12.72;100.00
50430;BME280;36359;41.556;-8.418;2023-03-26T03:52:11;100713.44;;;12.94;100.00
50430;BME280;36359;41.556;-8.418;2023-03-26T03:54:40;100721.63;;;12.94;100.00
50430;BME280;36359;41.556;-8.418;2023-03-26T03:57:17;100717.97;;;13.04;100.00
50430;BME280;36359;41.556;-8.418;2023-03-26T04:00:05;100718.97;;;13.38;100.00
50430;BME280;36359;41.556;-8.418;2023-03-26T04:02:41;100725.66;;;13.26;100.00
50430;BME280;36359;41.556;-8.418;2023-03-26T04:05:11;100727.19;;;13.11;100.00
50430;BME280;36359;41.556;-8.418;2023-03-26T04:07:43;100716.19;;;12.94;100.00
50430;BME280;36359;41.556;-8.418;2023-03-26T04:10:27;100718.19;;;12.92;100.00
50430;BME280;36359;41.556;-8.418;2023-03-26T04:13:12;100718.91;;;12.94;100.00
50430;BME280;36359;41.556;-8.418;2023-03-26T04:15:54;100725.81;;;12.89;100.00
50430;BME280;36359;41.556;-8.418;2023-03-26T04:18:20;100726.28;;;12.84;100.00
50430;BME280;36359;41.556;-8.418;2023-03-26T04:20:47;100728.59;;;12.79;100.00
50430;BME280;36359;41.556;-8.418;2023-03-26T04:23:34;100726.44;;;13.18;100.00
50430;BME280;36359;41.556;-8.418;2023-03-26T04:26:14;100727.28;;;12.83;100.00
50430;BME280;36359;41.556;-8.418;2023-03-26T04:29:04;100721.94;;;12.73;100.00
50430;BME280;36359;41.556;-8.418;2023-03-26T04:31:31;100726.03;;;12.60;100.00
50430;BME280;36359;41.556;-8.418;2023-03-26T04:34:05;100726.84;;;12.42;100.00
50430;BME280;36359;41.556;-8.418;2023-03-26T04:36:38;100736.06;;;12.59;100.00
50430;BME280;36359;41.556;-8.418;2023-03-26T04:39:09;100740.81;;;12.57;100.00
50430;BME280;36359;41.556;-8.418;2023-03-26T04:41:56;100753.44;;;12.48;100.00
50430;BME280;36359;41.556;-8.418;2023-03-26T04:44:25;100744.97;;;12.52;100.00
50430;BME280;36359;41.556;-8.418;2023-03-26T04:46:56;100752.38;;;12.41;100.00
50430;BME280;36359;41.556;-8.418;2023-03-26T04:49:29;100743.88;;;12.44;100.00
50430;BME280;36359;41.556;-8.418;2023-03-26T04:51:55;100743.81;;;12.54;100.00
50430;BME280;36359;41.556;-8.418;2023-03-26T04:54:56;100745.50;;;12.65;100.00
50430;BME280;36359;41.556;-8.418;2023-03-26T05:00:12;100756.44;;;12.73;100.00
50430;BME280;36359;41.556;-8.418;2023-03-26T05:02:46;100757.97;;;13.39;100.00
50430;BME280;36359;41.556;-8.418;2023-03-26T05:05:16;100770.72;;;13.03;100.00
50430;BME280;36359;41.556;-8.418;2023-03-26T05:07:43;100763.25;;;12.87;100.00
50430;BME280;36359;41.556;-8.418;2023-03-26T05:10:13;100766.28;;;13.02;100.00
50430;BME280;36359;41.556;-8.418;2023-03-26T05:12:46;100772.13;;;12.89;100.00
50430;BME280;36359;41.556;-8.418;2023-03-26T05:15:25;100771.44;;;12.59;100.00
50430;BME280;36359;41.556;-8.418;2023-03-26T05:18:10;100776.25;;;12.47;100.00
50430;BME280;36359;41.556;-8.418;2023-03-26T05:20:42;100778.44;;;12.34;100.00
50430;BME280;36359;41.556;-8.418;2023-03-26T05:23:09;100775.91;;;12.23;100.00
50430;BME280;36359;41.556;-8.418;2023-03-26T05:25:37;100778.09;;;12.19;100.00
50430;BME280;36359;41.556;-8.418;2023-03-26T05:28:10;100787.69;;;12.14;100.00
50430;BME280;36359;41.556;-8.418;2023-03-26T05:30:45;100792.03;;;12.07;100.00
50430;BME280;36359;41.556;-8.418;2023-03-26T05:33:11;100794.31;;;12.01;100.00
50430;BME280;36359;41.556;-8.418;2023-03-26T05:35:45;100800.56;;;12.12;100.00
50430;BME280;36359;41.556;-8.418;2023-03-26T05:38:11;100808.72;;;12.12;100.00
50430;BME280;36359;41.556;-8.418;2023-03-26T05:40:37;100806.91;;;12.02;100.00
50430;BME280;36359;41.556;-8.418;2023-03-26T05:43:04;100802.47;;;12.01;100.00
50430;BME280;36359;41.556;-8.418;2023-03-26T05:45:36;100807.94;;;12.01;100.00
50430;BME280;36359;41.556;-8.418;2023-03-26T05:48:28;100818.94;;;12.10;100.00
50430;BME280;36359;41.556;-8.418;2023-03-26T05:50:56;100816.09;;;12.01;100.00
50430;BME280;36359;41.556;-8.418;2023-03-26T05:53:25;100810.38;;;11.95;100.00
50430;BME280;36359;41.556;-8.418;2023-03-26T05:56:09;100807.78;;;11.93;100.00
50430;BME280;36359;41.556;-8.418;2023-03-26T05:58:55;100814.09;;;11.94;100.00
50430;BME280;36359;41.556;-8.418;2023-03-26T06:02:00;100822.41;;;11.92;100.00
50430;BME280;36359;41.556;-8.418;2023-03-26T06:04:41;100827.13;;;11.80;100.00
50430;BME280;36359;41.556;-8.418;2023-03-26T06:07:30;100833.84;;;11.76;100.00
50430;BME280;36359;41.556;-8.418;2023-03-26T06:10:16;100828.69;;;11.73;100.00
50430;BME280;36359;41.556;-8.418;2023-03-26T06:12:42;100838.28;;;11.77;100.00
50430;BME280;36359;41.556;-8.418;2023-03-26T06:15:08;100835.84;;;11.84;100.00
50430;BME280;36359;41.556;-8.418;2023-03-26T06:17:46;100829.69;;;11.82;100.00
50430;BME280;36359;41.556;-8.418;2023-03-26T06:20:18;100829.88;;;11.71;100.00
50430;BME280;36359;41.556;-8.418;2023-03-26T06:22:47;100833.13;;;11.65;100.00
50430;BME280;36359;41.556;-8.418;2023-03-26T06:25:19;100838.88;;;11.71;100.00
50430;BME280;36359;41.556;-8.418;2023-03-26T06:28:03;100836.28;;;11.70;100.00
50430;BME280;36359;41.556;-8.418;2023-03-26T06:30:50;100846.88;;;11.82;100.00
50430;BME280;36359;41.556;-8.418;2023-03-26T06:33:29;100849.28;;;11.76;100.00
50430;BME280;36359;41.556;-8.418;2023-03-26T06:35:57;100860.47;;;11.73;100.00
50430;BME280;36359;41.556;-8.418;2023-03-26T06:38:24;100865.75;;;11.74;100.00
50430;BME280;36359;41.556;-8.418;2023-03-26T06:40:50;100874.59;;;11.76;100.00
50430;BME280;36359;41.556;-8.418;2023-03-26T06:43:35;100873.75;;;11.76;100.00
50430;BME280;36359;41.556;-8.418;2023-03-26T06:46:32;100875.47;;;11.67;100.00
50430;BME280;36359;41.556;-8.418;2023-03-26T06:49:16;100876.34;;;11.58;100.00
50430;BME280;36359;41.556;-8.418;2023-03-26T06:52:14;100882.94;;;11.46;100.00
50430;BME280;36359;41.556;-8.418;2023-03-26T06:55:01;100884.22;;;11.51;100.00
50430;BME280;36359;41.556;-8.418;2023-03-26T06:57:51;100884.50;;;11.58;100.00
50430;BME280;36359;41.556;-8.418;2023-03-26T07:00:53;100893.50;;;11.58;100.00
50430;BME280;36359;41.556;-8.418;2023-03-26T07:03:37;100887.66;;;11.63;100.00
50430;BME280;36359;41.556;-8.418;2023-03-26T07:06:21;100898.81;;;11.60;100.00
50430;BME280;36359;41.556;-8.418;2023-03-26T07:09:06;100903.81;;;11.65;100.00
50430;BME280;36359;41.556;-8.418;2023-03-26T07:11:40;100902.25;;;11.72;100.00
50430;BME280;36359;41.556;-8.418;2023-03-26T07:14:35;100918.84;;;11.78;100.00
50430;BME280;36359;41.556;-8.418;2023-03-26T07:17:29;100914.59;;;11.86;100.00
50430;BME280;36359;41.556;-8.418;2023-03-26T07:20:06;100919.44;;;11.92;100.00
50430;BME280;36359;41.556;-8.418;2023-03-26T07:22:33;100927.00;;;11.88;100.00
50430;BME280;36359;41.556;-8.418;2023-03-26T07:25:05;100926.00;;;11.70;100.00
50430;BME280;36359;41.556;-8.418;2023-03-26T07:27:59;100934.53;;;11.36;100.00
50430;BME280;36359;41.556;-8.418;2023-03-26T07:46:35;100952.59;;;11.56;100.00
50430;BME280;36359;41.556;-8.418;2023-03-26T07:49:31;100958.16;;;11.65;100.00
50430;BME280;36359;41.556;-8.418;2023-03-26T07:52:20;100955.66;;;11.92;100.00
50430;BME280;36359;41.556;-8.418;2023-03-26T07:55:14;100961.25;;;12.00;100.00
50430;BME280;36359;41.556;-8.418;2023-03-26T07:58:17;100964.94;;;12.19;100.00
50430;BME280;36359;41.556;-8.418;2023-03-26T08:06:59;100976.25;;;12.24;100.00
50430;BME280;36359;41.556;-8.418;2023-03-26T08:10:15;100980.69;;;12.25;100.00
50430;BME280;36359;41.556;-8.418;2023-03-26T08:16:13;100993.25;;;12.45;100.00
50430;BME280;36359;41.556;-8.418;2023-03-26T08:21:32;100999.97;;;12.61;100.00
50430;BME280;36359;41.556;-8.418;2023-03-26T08:24:21;101001.75;;;12.89;100.00
50430;BME280;36359;41.556;-8.418;2023-03-26T08:29:30;101003.91;;;12.86;100.00
50430;BME280;36359;41.556;-8.418;2023-03-26T08:32:00;101005.38;;;12.80;100.00
50430;BME280;36359;41.556;-8.418;2023-03-26T08:34:28;101003.22;;;12.74;100.00
50430;BME280;36359;41.556;-8.418;2023-03-26T08:36:53;100999.91;;;12.80;100.00
50430;BME280;36359;41.556;-8.418;2023-03-26T08:39:19;101011.78;;;12.89;100.00
50430;BME280;36359;41.556;-8.418;2023-03-26T08:42:21;101013.03;;;13.04;100.00
50430;BME280;36359;41.556;-8.418;2023-03-26T08:56:10;101024.94;;;13.68;100.00
50430;BME280;36359;41.556;-8.418;2023-03-26T09:02:00;101031.28;;;14.22;100.00
50430;BME280;36359;41.556;-8.418;2023-03-26T09:05:08;101035.63;;;14.33;100.00
50430;BME280;36359;41.556;-8.418;2023-03-26T09:49:51;101065.00;;;16.04;87.35
50430;BME280;36359;41.556;-8.418;2023-03-26T10:03:31;101066.59;;;15.04;77.29
50430;BME280;36359;41.556;-8.418;2023-03-26T10:14:26;101074.56;;;14.71;79.51
50430;BME280;36359;41.556;-8.418;2023-03-26T10:33:33;101078.00;;;15.59;81.02
50430;BME280;36359;41.556;-8.418;2023-03-26T10:36:11;101078.09;;;15.76;80.11
50430;BME280;36359;41.556;-8.418;2023-03-26T10:52:24;101069.97;;;16.00;71.60
50430;BME280;36359;41.556;-8.418;2023-03-26T10:57:40;101081.78;;;16.09;72.59
50430;BME280;36359;41.556;-8.418;2023-03-26T11:00:27;101084.44;;;15.84;70.08
50430;BME280;36359;41.556;-8.418;2023-03-26T11:05:58;101083.97;;;15.89;67.02
50430;BME280;36359;41.556;-8.418;2023-03-26T11:08:47;101077.16;;;16.18;73.72
50430;BME280;36359;41.556;-8.418;2023-03-26T11:14:16;101072.88;;;15.56;66.70
50430;BME280;36359;41.556;-8.418;2023-03-26T11:19:52;101076.97;;;15.95;64.40
50430;BME280;36359;41.556;-8.418;2023-03-26T11:28:32;101081.72;;;15.50;65.77
50430;BME280;36359;41.556;-8.418;2023-03-26T11:33:49;101068.66;;;16.45;66.68
50430;BME280;36359;41.556;-8.418;2023-03-26T11:36:20;101065.66;;;17.37;73.61
50430;BME280;36359;41.556;-8.418;2023-03-26T11:38:49;101082.34;;;17.11;64.02
50430;BME280;36359;41.556;-8.418;2023-03-26T11:41:22;101076.16;;;16.19;67.40
50430;BME280;36359;41.556;-8.418;2023-03-26T11:44:04;101079.66;;;15.86;66.87
50430;BME280;36359;41.556;-8.418;2023-03-26T11:46:43;101072.69;;;15.92;69.17
50430;BME280;36359;41.556;-8.418;2023-03-26T11:49:12;101073.75;;;16.16;66.88
50430;BME280;36359;41.556;-8.418;2023-03-26T11:51:41;101070.31;;;15.97;63.73
50430;BME280;36359;41.556;-8.418;2023-03-26T11:54:10;101068.63;;;16.12;65.87
50430;BME280;36359;41.556;-8.418;2023-03-26T11:59:17;101076.53;;;16.73;62.41
50430;BME280;36359;41.556;-8.418;2023-03-26T12:01:58;101068.00;;;16.68;62.09
50430;BME280;36359;41.556;-8.418;2023-03-26T12:04:45;101075.16;;;16.69;60.78
50430;BME280;36359;41.556;-8.418;2023-03-26T12:07:28;101059.97;;;17.46;64.99
50430;BME280;36359;41.556;-8.418;2023-03-26T12:10:01;101076.72;;;17.12;57.74
50430;BME280;36359;41.556;-8.418;2023-03-26T12:12:33;101062.81;;;17.61;65.64
50430;BME280;36359;41.556;-8.418;2023-03-26T12:15:01;101068.41;;;17.76;59.24
50430;BME280;36359;41.556;-8.418;2023-03-26T12:17:33;101068.06;;;17.40;64.01
50430;BME280;36359;41.556;-8.418;2023-03-26T12:19:59;101068.75;;;17.34;59.08
50430;BME280;36359;41.556;-8.418;2023-03-26T12:22:33;101065.94;;;16.86;59.70
50430;BME280;36359;41.556;-8.418;2023-03-26T12:25:18;101069.66;;;17.18;61.34
50430;BME280;36359;41.556;-8.418;2023-03-26T12:27:49;101072.63;;;16.92;58.08
50430;BME280;36359;41.556;-8.418;2023-03-26T12:30:21;101075.00;;;16.54;61.54
50430;BME280;36359;41.556;-8.418;2023-03-26T12:32:49;101077.06;;;16.60;57.50
50430;BME280;36359;41.556;-8.418;2023-03-26T12:35:18;101076.22;;;16.68;58.91
50430;BME280;36359;41.556;-8.418;2023-03-26T12:42:57;101064.31;;;17.80;58.60
50430;BME280;36359;41.556;-8.418;2023-03-26T12:45:43;101066.19;;;17.32;56.97
50430;BME280;36359;41.556;-8.418;2023-03-26T12:48:12;101069.34;;;16.96;55.42
50430;BME280;36359;41.556;-8.418;2023-03-26T12:56:22;101054.16;;;17.41;56.78
50430;BME280;36359;41.556;-8.418;2023-03-26T13:01:53;101065.53;;;17.14;54.20
50430;BME280;36359;41.556;-8.418;2023-03-26T13:04:58;101067.56;;;17.36;54.28
50430;BME280;36359;41.556;-8.418;2023-03-26T13:15:34;101050.06;;;18.08;50.95
50430;BME280;36359;41.556;-8.418;2023-03-26T13:18:36;101059.13;;;17.38;52.85
50430;BME280;36359;41.556;-8.418;2023-03-26T13:21:11;101053.00;;;17.67;54.06
50430;BME280;36359;41.556;-8.418;2023-03-26T13:29:08;101054.09;;;17.10;54.11
50430;BME280;36359;41.556;-8.418;2023-03-26T13:37:13;101041.41;;;17.57;53.59
50430;BME280;36359;41.556;-8.418;2023-03-26T13:45:20;101043.22;;;17.33;60.03
50430;BME280;36359;41.556;-8.418;2023-03-26T13:47:53;101034.84;;;17.27;55.86
50430;BME280;36359;41.556;-8.418;2023-03-26T13:50:27;101038.34;;;16.88;55.10
50430;BME280;36359;41.556;-8.418;2023-03-26T13:55:47;101042.09;;;16.70;55.44
50430;BME280;36359;41.556;-8.418;2023-03-26T14:03:32;101035.31;;;18.32;56.71
50430;BME280;36359;41.556;-8.418;2023-03-26T14:06:04;101037.19;;;18.08;54.64
50430;BME280;36359;41.556;-8.418;2023-03-26T14:11:11;101030.78;;;17.06;53.10
50430;BME280;36359;41.556;-8.418;2023-03-26T14:13:46;101024.53;;;17.29;53.38
50430;BME280;36359;41.556;-8.418;2023-03-26T14:16:17;101022.19;;;17.65;53.78
50430;BME280;36359;41.556;-8.418;2023-03-26T14:29:58;101012.63;;;18.15;49.58
50430;BME280;36359;41.556;-8.418;2023-03-26T14:41:05;101001.13;;;19.10;49.51
50430;BME280;36359;41.556;-8.418;2023-03-26T14:49:15;100996.47;;;18.96;50.62
50430;BME280;36359;41.556;-8.418;2023-03-26T14:52:16;100991.50;;;18.76;56.22
50430;BME280;36359;41.556;-8.418;2023-03-26T14:54:48;100990.19;;;19.17;53.78
50430;BME280;36359;41.556;-8.418;2023-03-26T15:00:21;100991.16;;;19.90;51.15
50430;BME280;36359;41.556;-8.418;2023-03-26T15:11:27;100974.91;;;18.47;57.55
50430;BME280;36359;41.556;-8.418;2023-03-26T15:36:57;100977.03;;;17.67;55.50
50430;BME280;36359;41.556;-8.418;2023-03-26T15:42:18;100964.16;;;17.99;54.71
50430;BME280;36359;41.556;-8.418;2023-03-26T15:44:53;100973.66;;;18.34;57.57
50430;BME280;36359;41.556;-8.418;2023-03-26T15:52:45;100972.59;;;17.98;56.57
50430;BME280;36359;41.556;-8.418;2023-03-26T15:55:33;100965.44;;;18.11;54.99
50430;BME280;36359;41.556;-8.418;2023-03-26T15:58:14;100965.22;;;18.21;55.37
50430;BME280;36359;41.556;-8.418;2023-03-26T16:04:28;100960.81;;;17.58;56.32
50430;BME280;36359;41.556;-8.418;2023-03-26T16:14:20;100954.09;;;17.60;55.60
50430;BME280;36359;41.556;-8.418;2023-03-26T16:24:22;100956.09;;;17.35;55.39
50430;BME280;36359;41.556;-8.418;2023-03-26T16:27:27;100962.84;;;17.56;55.08
50430;BME280;36359;41.556;-8.418;2023-03-26T16:34:57;100962.09;;;18.01;54.69
50430;BME280;36359;41.556;-8.418;2023-03-26T16:37:35;100968.13;;;17.34;55.66
50430;BME280;36359;41.556;-8.418;2023-03-26T16:40:31;100966.81;;;17.22;55.75
50430;BME280;36359;41.556;-8.418;2023-03-26T16:48:32;100966.09;;;17.28;57.40
50430;BME280;36359;41.556;-8.418;2023-03-26T16:51:21;100963.38;;;17.59;57.39
50430;BME280;36359;41.556;-8.418;2023-03-26T17:02:34;100965.53;;;16.93;57.04
50430;BME280;36359;41.556;-8.418;2023-03-26T17:07:43;100969.31;;;16.92;58.54
50430;BME280;36359;41.556;-8.418;2023-03-26T17:18:37;100969.00;;;16.54;60.65
50430;BME280;36359;41.556;-8.418;2023-03-26T17:26:25;100969.91;;;16.30;63.17
50430;BME280;36359;41.556;-8.418;2023-03-26T17:31:44;100963.91;;;16.27;62.83
50430;BME280;36359;41.556;-8.418;2023-03-26T17:34:39;100967.31;;;16.53;63.43
50430;BME280;36359;41.556;-8.418;2023-03-26T17:45:00;100969.84;;;15.81;66.26
50430;BME280;36359;41.556;-8.418;2023-03-26T17:47:52;100975.16;;;15.91;66.35
50430;BME280;36359;41.556;-8.418;2023-03-26T17:50:49;100974.84;;;16.02;67.62
50430;BME280;36359;41.556;-8.418;2023-03-26T17:53:19;100967.81;;;16.41;67.18
50430;BME280;36359;41.556;-8.418;2023-03-26T17:55:49;100969.56;;;16.01;66.83
50430;BME280;36359;41.556;-8.418;2023-03-26T17:58:34;100972.06;;;15.78;68.40
50430;BME280;36359;41.556;-8.418;2023-03-26T18:01:06;100973.97;;;15.77;67.90
50430;BME280;36359;41.556;-8.418;2023-03-26T18:03:41;100964.91;;;15.77;69.93
50430;BME280;36359;41.556;-8.418;2023-03-26T18:06:32;100961.81;;;15.72;68.76
50430;BME280;36359;41.556;-8.418;2023-03-26T18:17:20;100960.69;;;15.48;70.53
50430;BME280;36359;41.556;-8.418;2023-03-26T18:19:48;100961.06;;;15.61;70.19
50430;BME280;36359;41.556;-8.418;2023-03-26T18:22:19;100960.09;;;15.71;70.71
50430;BME280;36359;41.556;-8.418;2023-03-26T18:24:45;100956.25;;;15.55;70.92
50430;BME280;36359;41.556;-8.418;2023-03-26T18:27:20;100964.72;;;15.28;72.68
50430;BME280;36359;41.556;-8.418;2023-03-26T18:32:23;100960.50;;;14.99;74.55
50430;BME280;36359;41.556;-8.418;2023-03-26T18:34:56;100966.03;;;15.15;75.11
50430;BME280;36359;41.556;-8.418;2023-03-26T18:37:31;100956.22;;;15.98;73.02
50430;BME280;36359;41.556;-8.418;2023-03-26T18:42:50;100961.16;;;15.86;74.57
50430;BME280;36359;41.556;-8.418;2023-03-26T18:45:32;100962.69;;;15.88;72.79
50430;BME280;36359;41.556;-8.418;2023-03-26T18:48:01;100960.97;;;15.87;71.80
50430;BME280;36359;41.556;-8.418;2023-03-26T18:50:36;100968.69;;;15.92;71.93
50430;BME280;36359;41.556;-8.418;2023-03-26T18:53:06;100965.09;;;15.83;72.71
50430;BME280;36359;41.556;-8.418;2023-03-26T18:55:34;100970.16;;;15.70;72.42
50430;BME280;36359;41.556;-8.418;2023-03-26T18:58:34;100967.91;;;15.65;72.90
50430;BME280;36359;41.556;-8.418;2023-03-26T19:01:01;100970.72;;;15.90;76.39
50430;BME280;36359;41.556;-8.418;2023-03-26T19:03:30;100965.94;;;15.84;74.48
50430;BME280;36359;41.556;-8.418;2023-03-26T19:06:01;100970.56;;;15.92;74.70
50430;BME280;36359;41.556;-8.418;2023-03-26T19:08:29;100968.66;;;15.84;72.03
50430;BME280;36359;41.556;-8.418;2023-03-26T19:10:57;100976.69;;;15.69;72.25
50430;BME280;36359;41.556;-8.418;2023-03-26T19:13:27;100980.19;;;15.53;73.59
50430;BME280;36359;41.556;-8.418;2023-03-26T19:15:53;100975.84;;;15.93;76.32
50430;BME280;36359;41.556;-8.418;2023-03-26T19:18:25;100992.63;;;15.90;73.83